createdAt,value
2022-11-13T00:00:46.627Z,4.23
2022-11-13T00:05:07.249Z,5.50
2022-11-13T00:09:29.038Z,4.80
2022-11-13T00:13:50.115Z,5.57
2022-11-13T00:18:11.067Z,4.90
2022-11-13T00:22:31.620Z,5.70
2022-11-13T00:27:04.125Z,7.77
2022-11-13T00:31:50.390Z,8.00
2022-11-13T00:36:15.500Z,8.13
2022-11-13T00:40:36.012Z,7.30
2022-11-13T00:44:56.752Z,7.93
2022-11-13T00:49:17.917Z,9.47
2022-11-13T00:53:38.679Z,7.23
2022-11-13T00:58:20.635Z,8.27
2022-11-13T01:02:41.817Z,7.20
2022-11-13T01:07:09.797Z,9.00
2022-11-13T01:11:30.985Z,9.50
2022-11-13T01:16:09.816Z,11.60
2022-11-13T01:21:02.218Z,10.30
2022-11-13T01:25:23.026Z,10.93
2022-11-13T01:29:43.365Z,12.50
2022-11-13T01:34:06.392Z,12.23
2022-11-13T01:38:53.420Z,13.13
2022-11-13T01:43:27.231Z,14.60
2022-11-13T01:47:48.124Z,13.60
2022-11-13T01:52:29.470Z,11.83
2022-11-13T01:57:16.049Z,14.37
2022-11-13T02:01:41.900Z,16.43
2022-11-13T02:06:02.790Z,18.20
2022-11-13T02:10:23.329Z,18.77
2022-11-13T02:14:58.675Z,17.03
2022-11-13T02:19:33.085Z,17.20
2022-11-13T02:24:21.098Z,20.20
2022-11-13T02:28:41.706Z,15.37
2022-11-13T02:33:33.933Z,18.30
2022-11-13T02:37:56.387Z,22.43
2022-11-13T02:42:16.458Z,23.33
2022-11-13T02:46:56.425Z,25.37
2022-11-13T02:51:19.026Z,21.53
2022-11-13T02:55:39.710Z,25.40
2022-11-13T03:05:11.910Z,32.23
2022-11-13T03:09:52.323Z,33.90
2022-11-13T03:14:13.187Z,29.13
2022-11-13T03:18:35.601Z,31.27
2022-11-13T03:22:56.041Z,33.27
2022-11-13T03:27:20.022Z,30.70
2022-11-13T03:32:40.336Z,34.17
2022-11-13T03:37:01.952Z,34.30
2022-11-13T03:41:31.453Z,38.33
2022-11-13T03:45:52.031Z,43.87
2022-11-13T03:50:34.129Z,53.53
2022-11-13T03:55:00.564Z,37.70
2022-11-13T03:59:20.935Z,30.77
2022-11-13T04:03:41.309Z,28.80
2022-11-13T04:08:01.448Z,25.03
2022-11-13T04:13:12.052Z,26.43
2022-11-13T04:17:33.033Z,22.63
2022-11-13T04:21:53.552Z,26.60
2022-11-13T04:26:13.961Z,31.47
2022-11-13T04:30:34.696Z,31.80
2022-11-13T04:34:55.193Z,35.57
2022-11-13T04:39:15.638Z,32.57
2022-11-13T04:43:36.189Z,38.60
2022-11-13T04:47:56.761Z,27.63
2022-11-13T04:52:17.635Z,31.10
2022-11-13T04:56:51.722Z,40.13
2022-11-13T05:07:32.295Z,49.50
2022-11-13T05:11:52.809Z,44.60
2022-11-13T05:16:14.772Z,58.00
2022-11-13T05:20:38.201Z,44.23
2022-11-13T05:24:58.424Z,66.93
2022-11-13T05:29:19.354Z,60.93
2022-11-13T05:33:40.674Z,36.27
2022-11-13T05:38:02.292Z,60.73
2022-11-13T05:42:23.181Z,42.70
2022-11-13T05:46:43.675Z,62.03
2022-11-13T05:51:09.282Z,51.93
2022-11-13T05:55:32.840Z,52.37
2022-11-13T05:59:52.955Z,70.33
2022-11-13T06:04:13.412Z,56.60
2022-11-13T06:08:34.195Z,43.03
2022-11-13T06:12:55.243Z,70.77
2022-11-13T06:17:15.561Z,51.83
2022-11-13T06:21:52.378Z,56.03
2022-11-13T06:26:15.366Z,50.10
2022-11-13T06:36:31.342Z,46.47
2022-11-13T06:41:17.893Z,59.00
2022-11-13T06:45:38.186Z,51.50
2022-11-13T06:50:00.050Z,75.93
2022-11-13T06:54:29.571Z,52.40
2022-11-13T06:58:50.059Z,70.73
2022-11-13T07:03:18.596Z,38.50
2022-11-13T07:08:29.122Z,60.83
2022-11-13T07:12:54.514Z,56.03
2022-11-13T07:17:15.272Z,49.80
2022-11-13T07:21:35.681Z,37.83
2022-11-13T07:26:31.046Z,61.03
2022-11-13T07:31:22.079Z,91.30
2022-11-13T07:35:58.971Z,64.90
2022-11-13T07:40:19.523Z,62.50
2022-11-13T07:44:54.124Z,59.53
2022-11-13T07:49:18.906Z,78.27
2022-11-13T07:53:40.444Z,37.17
2022-11-13T07:58:01.807Z,49.63
2022-11-13T08:02:26.354Z,34.10
2022-11-13T08:06:47.394Z,66.23
2022-11-13T08:11:14.003Z,61.80
2022-11-13T08:16:00.921Z,54.23
2022-11-13T08:20:31.352Z,50.73
2022-11-13T08:24:53.845Z,58.43
2022-11-13T08:29:37.454Z,53.53
2022-11-13T08:34:48.964Z,41.67
2022-11-13T08:39:10.232Z,58.63
2022-11-13T08:43:30.935Z,31.57
2022-11-13T08:48:22.023Z,26.87
2022-11-13T08:52:58.077Z,41.23
2022-11-13T08:58:14.712Z,39.03
2022-11-13T09:02:35.122Z,35.17
2022-11-13T09:06:55.794Z,29.70
2022-11-13T09:11:17.546Z,45.80
2022-11-13T09:16:27.849Z,53.93
2022-11-13T09:20:48.092Z,33.00
2022-11-13T09:25:17.849Z,32.00
2022-11-13T09:30:04.214Z,75.40
2022-11-13T09:34:34.789Z,27.97
2022-11-13T09:38:55.794Z,33.60
2022-11-13T09:43:59.734Z,26.50
2022-11-13T09:48:55.625Z,25.50
2022-11-13T09:53:17.057Z,25.93
2022-11-13T09:58:36.413Z,25.70
2022-11-13T10:04:01.858Z,25.93
2022-11-13T10:09:12.996Z,25.53
2022-11-13T10:14:40.289Z,25.63
2022-11-13T10:19:55.316Z,23.03
2022-11-13T10:24:27.708Z,26.07
2022-11-13T10:29:14.682Z,22.53
2022-11-13T10:33:35.275Z,26.80
2022-11-13T10:38:02.127Z,26.67
2022-11-13T10:42:42.205Z,28.37
2022-11-13T10:52:54.345Z,28.10
2022-11-13T10:57:34.922Z,26.63
2022-11-13T11:02:22.553Z,32.17
2022-11-13T11:07:20.571Z,28.43
2022-11-13T11:11:59.651Z,23.60
2022-11-13T11:16:24.662Z,22.93
2022-11-13T11:20:55.041Z,22.07
2022-11-13T11:26:02.565Z,21.90
2022-11-13T11:30:28.737Z,22.47
2022-11-13T11:35:26.468Z,25.87
2022-11-13T11:39:46.800Z,23.27
2022-11-13T11:44:30.246Z,22.40
2022-11-13T11:48:51.586Z,22.77
2022-11-13T11:53:15.425Z,20.70
2022-11-13T11:57:50.614Z,21.23
2022-11-13T12:02:26.107Z,22.10
2022-11-13T12:06:52.752Z,21.83
2022-11-13T12:12:12.014Z,20.57
2022-11-13T12:16:44.119Z,22.23
2022-11-13T12:21:31.629Z,21.17
2022-11-13T12:26:44.108Z,20.27
2022-11-13T12:31:39.500Z,18.90
2022-11-13T12:36:01.267Z,18.20
2022-11-13T12:40:54.981Z,18.57
2022-11-13T12:45:36.805Z,17.00
2022-11-13T12:50:31.765Z,18.43
2022-11-13T12:55:29.216Z,17.97
2022-11-13T12:59:54.188Z,18.17
2022-11-13T13:04:39.448Z,17.87
2022-11-13T13:09:37.289Z,17.00
2022-11-13T13:14:26.671Z,19.37
2022-11-13T13:18:48.357Z,17.77
2022-11-13T13:23:12.987Z,17.63
2022-11-13T13:27:38.238Z,18.83
2022-11-13T13:33:02.952Z,17.13
2022-11-13T13:37:37.083Z,17.63
2022-11-13T13:42:17.354Z,17.03
2022-11-13T13:46:43.421Z,16.20
2022-11-13T13:51:29.732Z,18.13
2022-11-13T13:56:54.974Z,19.30
2022-11-13T14:01:36.172Z,18.30
2022-11-13T14:06:35.330Z,18.07
2022-11-13T14:11:47.819Z,20.13
2022-11-13T14:16:08.306Z,18.83
2022-11-13T14:20:28.540Z,19.23
2022-11-13T14:25:03.150Z,17.23
2022-11-13T14:29:47.171Z,19.53
2022-11-13T14:34:26.457Z,19.17
2022-11-13T14:38:51.985Z,18.57
2022-11-13T14:43:24.031Z,21.17
2022-11-13T14:48:05.980Z,19.67
2022-11-13T14:52:28.470Z,19.40
2022-11-13T14:56:48.843Z,17.67
2022-11-13T15:01:35.630Z,18.90
2022-11-13T15:06:16.011Z,21.67
2022-11-13T15:11:03.358Z,24.47
2022-11-13T15:15:36.095Z,27.53
2022-11-13T15:20:49.033Z,29.47
2022-11-13T15:25:14.213Z,30.57
2022-11-13T15:29:35.888Z,29.80
2022-11-13T15:34:57.049Z,34.67
2022-11-13T15:39:24.053Z,33.00
2022-11-13T15:43:49.930Z,30.90
2022-11-13T15:48:14.406Z,30.63
2022-11-13T15:52:42.804Z,34.20
2022-11-13T15:57:31.208Z,30.07
2022-11-13T16:02:04.123Z,34.90
2022-11-13T16:06:25.725Z,35.40
2022-11-13T16:10:46.034Z,35.90
2022-11-13T16:15:07.377Z,33.57
2022-11-13T16:19:29.140Z,33.07
2022-11-13T16:23:49.614Z,33.57
2022-11-13T16:28:19.554Z,30.83
2022-11-13T16:32:43.415Z,33.70
2022-11-13T16:37:14.215Z,29.57
2022-11-13T16:42:05.356Z,32.07
2022-11-13T16:46:45.935Z,30.90
2022-11-13T16:57:30.086Z,30.30
2022-11-13T17:01:55.088Z,32.40
2022-11-13T17:06:25.697Z,32.30
2022-11-13T17:10:45.967Z,31.57
2022-11-13T17:15:07.063Z,31.73
2022-11-13T17:19:27.820Z,32.47
2022-11-13T17:23:48.442Z,31.50
2022-11-13T17:28:19.931Z,29.20
2022-11-13T17:33:30.149Z,27.33
2022-11-13T17:37:51.503Z,33.23
2022-11-13T17:42:11.994Z,30.40
2022-11-13T17:46:32.572Z,30.50
2022-11-13T17:51:06.822Z,31.00
2022-11-13T17:55:27.139Z,30.30
2022-11-13T17:59:47.394Z,30.90
2022-11-13T18:04:07.978Z,31.93
2022-11-13T18:08:28.487Z,30.40
2022-11-13T18:19:14.072Z,31.53
2022-11-13T18:23:39.851Z,30.83
2022-11-13T18:28:00.493Z,31.07
2022-11-13T18:32:21.312Z,29.40
2022-11-13T18:36:41.981Z,29.40
2022-11-13T18:41:13.028Z,27.70
2022-11-13T18:45:35.610Z,28.80
2022-11-13T18:49:58.453Z,28.43
2022-11-13T18:54:43.927Z,25.57
2022-11-13T18:59:11.211Z,27.67
2022-11-13T19:03:31.627Z,27.17
2022-11-13T19:08:00.614Z,26.80
2022-11-13T19:12:48.007Z,25.30
2022-11-13T19:17:09.942Z,26.90
2022-11-13T19:21:56.922Z,27.23
2022-11-13T19:26:17.699Z,26.10
2022-11-13T19:30:47.614Z,24.93
2022-11-13T19:35:08.558Z,27.20
2022-11-13T19:39:29.455Z,24.57
2022-11-13T19:43:50.048Z,25.70
2022-11-13T19:48:16.144Z,24.30
2022-11-13T19:52:50.555Z,24.20
2022-11-13T19:57:15.517Z,26.30
2022-11-13T20:01:58.982Z,25.30
2022-11-13T20:06:19.827Z,23.43
2022-11-13T20:10:40.137Z,26.23
2022-11-13T20:15:06.975Z,26.20
2022-11-13T20:19:35.690Z,26.23
2022-11-13T20:24:26.390Z,27.70
2022-11-13T20:28:54.275Z,27.83
2022-11-13T20:33:19.805Z,26.60
2022-11-13T20:37:45.444Z,27.50
2022-11-13T20:42:05.857Z,29.30
2022-11-13T20:46:26.515Z,26.37
2022-11-13T20:50:49.460Z,27.67
2022-11-13T20:55:11.143Z,28.23
2022-11-13T21:00:28.907Z,26.67
2022-11-13T21:04:50.970Z,27.80
2022-11-13T21:09:11.674Z,29.97
2022-11-13T21:13:32.414Z,27.13
2022-11-13T21:18:06.276Z,30.80
2022-11-13T21:22:26.373Z,28.93
2022-11-13T21:27:05.559Z,31.73
2022-11-13T21:31:27.091Z,29.67
2022-11-13T21:35:47.948Z,28.23
2022-11-13T21:40:10.104Z,29.10
2022-11-13T21:45:12.023Z,33.37
2022-11-13T21:49:32.429Z,30.83
2022-11-13T21:54:06.775Z,30.40
2022-11-13T22:04:33.097Z,31.37
2022-11-13T22:09:02.917Z,26.73
2022-11-13T22:20:10.099Z,30.93
2022-11-13T22:24:35.151Z,30.37
2022-11-13T22:29:19.708Z,31.77
2022-11-13T22:33:45.044Z,30.13
2022-11-13T22:38:08.823Z,32.70
2022-11-13T22:42:31.498Z,30.97
2022-11-13T22:47:04.132Z,34.20
2022-11-13T22:51:29.884Z,30.67
2022-11-13T22:56:05.297Z,30.87
2022-11-13T23:00:26.396Z,28.63
2022-11-13T23:04:46.760Z,34.10
2022-11-13T23:09:07.453Z,32.27
2022-11-13T23:13:29.985Z,34.70
2022-11-13T23:17:50.661Z,32.97
2022-11-13T23:22:12.589Z,36.43
2022-11-13T23:27:23.806Z,33.07
2022-11-13T23:32:09.867Z,32.40
2022-11-13T23:36:36.599Z,36.10
2022-11-13T23:40:59.414Z,36.23
2022-11-13T23:45:20.029Z,32.43
2022-11-13T23:49:42.755Z,36.47
2022-11-13T23:54:27.028Z,34.87
2022-11-13T23:58:52.399Z,35.70
